createdAt,value
2019-05-19T00:01:36.782Z,88.58
2019-05-19T00:04:06.395Z,79.20
2019-05-19T00:06:35.963Z,77.72
2019-05-19T00:09:06.643Z,85.53
2019-05-19T00:14:04.878Z,88.33
2019-05-19T00:16:34.454Z,87.67
2019-05-19T00:19:03.973Z,99.45
2019-05-19T00:21:33.460Z,99.45
2019-05-19T00:24:02.933Z,100.53
2019-05-19T00:26:32.818Z,89.80
2019-05-19T00:29:02.438Z,92.83
2019-05-19T00:31:32.000Z,96.70
2019-05-19T00:34:01.581Z,97.62
2019-05-19T00:36:31.153Z,99.40
2019-05-19T00:39:00.600Z,101.45
2019-05-19T00:44:00.148Z,88.92
2019-05-19T00:46:29.793Z,88.00
2019-05-19T00:48:59.363Z,97.63
2019-05-19T00:51:29.311Z,98.45
2019-05-19T00:53:58.959Z,93.10
2019-05-19T00:56:28.866Z,88.17
2019-05-19T00:59:00.066Z,83.30
2019-05-19T01:01:29.525Z,95.00
2019-05-19T01:03:59.071Z,93.73
2019-05-19T01:06:28.527Z,80.35
2019-05-19T01:08:58.018Z,81.42
2019-05-19T01:11:27.533Z,95.10
2019-05-19T01:13:57.029Z,94.25
2019-05-19T01:16:26.917Z,110.68
2019-05-19T01:18:56.486Z,96.27
2019-05-19T01:21:26.713Z,95.75
2019-05-19T01:26:24.839Z,85.25
2019-05-19T01:28:54.385Z,90.70
2019-05-19T01:31:24.027Z,79.47
2019-05-19T01:33:54.008Z,84.43
2019-05-19T01:36:23.515Z,88.67
2019-05-19T01:38:53.024Z,90.00
2019-05-19T01:41:22.564Z,94.47
2019-05-19T01:43:52.113Z,88.07
2019-05-19T01:46:21.659Z,93.03
2019-05-19T01:48:51.125Z,93.20
2019-05-19T01:51:20.650Z,100.70
2019-05-19T01:53:50.143Z,102.90
2019-05-19T01:56:19.700Z,104.92
2019-05-19T01:58:49.100Z,112.27
2019-05-19T02:01:18.732Z,115.42
2019-05-19T02:03:48.240Z,131.23
2019-05-19T02:06:17.943Z,131.50
2019-05-19T02:08:47.552Z,116.47
2019-05-19T02:11:17.019Z,108.72
2019-05-19T02:13:46.515Z,116.07
2019-05-19T02:16:16.110Z,108.30
2019-05-19T02:18:45.718Z,102.33
2019-05-19T02:21:15.210Z,109.20
2019-05-19T02:23:44.726Z,104.78
2019-05-19T02:26:14.264Z,113.40
2019-05-19T02:28:44.730Z,106.27
2019-05-19T02:31:14.209Z,119.60
2019-05-19T02:33:43.768Z,114.12
2019-05-19T02:36:14.577Z,109.67
2019-05-19T02:41:17.180Z,103.27
2019-05-19T02:43:48.030Z,108.37
2019-05-19T02:48:47.005Z,110.55
2019-05-19T02:51:18.942Z,115.37
2019-05-19T02:53:49.716Z,106.65
2019-05-19T02:56:20.962Z,103.67
2019-05-19T02:58:51.031Z,118.80
2019-05-19T03:01:20.602Z,126.60
2019-05-19T03:03:50.114Z,129.15
2019-05-19T03:06:19.672Z,118.90
2019-05-19T03:08:49.329Z,121.27
2019-05-19T03:11:18.846Z,117.30
2019-05-19T03:13:48.301Z,117.37
2019-05-19T03:16:18.877Z,122.47
2019-05-19T03:18:48.350Z,140.05
2019-05-19T03:21:17.882Z,136.52
2019-05-19T03:23:47.345Z,124.80
2019-05-19T03:26:17.719Z,132.43
2019-05-19T03:28:47.170Z,122.95
2019-05-19T03:31:21.234Z,130.87
2019-05-19T03:33:53.590Z,136.43
2019-05-19T03:36:23.132Z,128.68
2019-05-19T03:38:52.581Z,125.20
2019-05-19T03:41:22.451Z,120.37
2019-05-19T03:43:52.012Z,125.23
2019-05-19T03:46:21.538Z,132.87
2019-05-19T03:48:51.150Z,124.20
2019-05-19T03:51:31.118Z,129.87
2019-05-19T03:53:51.858Z,133.15
2019-05-19T03:56:22.896Z,124.62
2019-05-19T03:58:54.096Z,135.52
2019-05-19T04:01:25.077Z,129.72
2019-05-19T04:03:54.689Z,121.25
2019-05-19T04:06:24.209Z,132.37
2019-05-19T04:08:53.653Z,113.22
2019-05-19T04:11:23.105Z,106.43
2019-05-19T04:13:52.625Z,116.63
2019-05-19T04:16:22.113Z,124.78
2019-05-19T04:18:51.631Z,122.60
2019-05-19T04:21:21.085Z,129.53
2019-05-19T04:23:52.175Z,140.47
2019-05-19T04:26:21.679Z,127.45
2019-05-19T04:28:51.170Z,132.80
2019-05-19T04:31:20.629Z,118.93
2019-05-19T04:33:50.200Z,125.00
2019-05-19T04:36:19.722Z,114.80
2019-05-19T04:38:49.286Z,118.93
2019-05-19T04:41:18.764Z,120.47
2019-05-19T04:43:49.895Z,115.57
2019-05-19T04:46:19.445Z,117.13
2019-05-19T04:48:49.130Z,113.12
2019-05-19T04:51:18.595Z,117.93
2019-05-19T04:53:48.117Z,126.53
2019-05-19T04:56:19.829Z,109.05
2019-05-19T04:58:48.926Z,115.08
2019-05-19T05:01:18.467Z,115.70
2019-05-19T05:03:48.200Z,116.57
2019-05-19T05:06:17.730Z,113.80
2019-05-19T05:08:47.190Z,115.65
2019-05-19T05:11:17.024Z,116.20
2019-05-19T05:13:46.530Z,120.20
2019-05-19T05:16:15.984Z,109.35
2019-05-19T05:18:47.862Z,115.93
2019-05-19T05:21:16.664Z,113.22
2019-05-19T05:23:46.719Z,107.72
2019-05-19T05:26:16.288Z,111.37
2019-05-19T05:28:45.746Z,113.35
2019-05-19T05:31:15.714Z,114.15
2019-05-19T05:33:46.604Z,105.92
2019-05-19T05:36:16.087Z,112.25
2019-05-19T05:38:45.572Z,110.37
2019-05-19T05:41:15.034Z,109.15
2019-05-19T05:43:45.211Z,113.27
2019-05-19T05:46:14.740Z,99.87
2019-05-19T05:48:44.237Z,94.15
2019-05-19T05:51:13.704Z,105.10
2019-05-19T05:53:44.816Z,88.75
2019-05-19T05:56:14.280Z,97.27
2019-05-19T05:58:43.786Z,97.35
2019-05-19T06:01:13.265Z,102.10
2019-05-19T06:03:42.840Z,98.33
2019-05-19T06:06:12.299Z,94.83
2019-05-19T06:08:41.881Z,106.40
2019-05-19T06:11:11.334Z,92.20
2019-05-19T06:13:40.842Z,94.30
2019-05-19T06:16:10.309Z,85.35
2019-05-19T06:18:39.893Z,86.12
2019-05-19T06:21:09.294Z,96.42
2019-05-19T06:23:38.785Z,89.17
2019-05-19T06:26:08.262Z,88.00
2019-05-19T06:28:37.806Z,93.30
2019-05-19T06:31:07.437Z,90.92
2019-05-19T06:33:36.963Z,88.17
2019-05-19T06:36:06.489Z,89.50
2019-05-19T06:38:38.755Z,94.97
2019-05-19T06:41:08.220Z,81.55
2019-05-19T06:43:37.997Z,80.05
2019-05-19T06:46:07.709Z,81.42
2019-05-19T06:48:37.222Z,86.10
2019-05-19T06:51:06.796Z,87.42
2019-05-19T06:53:36.423Z,83.70
2019-05-19T06:56:05.996Z,76.75
2019-05-19T06:58:35.461Z,80.37
2019-05-19T07:01:04.968Z,81.32
2019-05-19T07:03:34.444Z,77.03
2019-05-19T07:06:05.597Z,79.03
2019-05-19T07:08:35.224Z,73.15
2019-05-19T07:11:04.689Z,72.78
2019-05-19T07:13:34.329Z,76.53
2019-05-19T07:16:03.886Z,75.67
2019-05-19T07:18:34.382Z,69.30
2019-05-19T07:21:03.951Z,77.97
2019-05-19T07:23:34.353Z,77.03
2019-05-19T07:26:05.479Z,72.30
2019-05-19T07:28:36.032Z,73.05
2019-05-19T07:31:05.545Z,70.47
2019-05-19T07:33:35.189Z,70.95
2019-05-19T07:36:04.792Z,71.12
2019-05-19T07:38:34.309Z,65.60
2019-05-19T07:41:03.844Z,70.87
2019-05-19T07:43:33.353Z,73.07
2019-05-19T07:46:02.857Z,69.42
2019-05-19T07:48:32.346Z,61.87
2019-05-19T07:51:01.890Z,59.42
2019-05-19T07:53:42.308Z,66.13
2019-05-19T07:56:02.535Z,57.25
2019-05-19T07:58:32.016Z,56.25
2019-05-19T08:01:01.579Z,60.92
2019-05-19T08:03:30.963Z,59.83
2019-05-19T08:06:00.608Z,56.98
2019-05-19T08:08:30.138Z,55.80
2019-05-19T08:11:01.162Z,56.33
2019-05-19T08:13:31.638Z,55.40
2019-05-19T08:16:01.886Z,53.48
2019-05-19T08:18:31.538Z,51.95
2019-05-19T08:21:00.994Z,53.35
2019-05-19T08:23:30.534Z,51.70
2019-05-19T08:26:00.036Z,51.75
2019-05-19T08:28:29.496Z,51.83
2019-05-19T08:30:59.143Z,50.52
2019-05-19T08:33:28.634Z,46.93
2019-05-19T08:35:58.591Z,49.77
2019-05-19T08:38:28.137Z,48.75
2019-05-19T08:40:57.684Z,45.23
2019-05-19T08:43:27.283Z,50.38
2019-05-19T08:45:58.911Z,47.62
2019-05-19T08:48:28.410Z,43.02
2019-05-19T08:50:57.982Z,40.05
2019-05-19T08:53:28.223Z,42.40
2019-05-19T08:55:57.810Z,44.98
2019-05-19T08:58:27.269Z,41.57
2019-05-19T09:00:56.675Z,44.05
2019-05-19T09:03:26.168Z,38.17
2019-05-19T09:05:55.674Z,39.58
2019-05-19T09:08:25.587Z,38.48
2019-05-19T09:10:55.121Z,40.43
2019-05-19T09:13:27.612Z,41.92
2019-05-19T09:15:57.090Z,34.88
2019-05-19T09:18:26.556Z,42.73
2019-05-19T09:20:56.162Z,38.88
2019-05-19T09:23:25.599Z,34.97
2019-05-19T09:25:55.506Z,35.68
2019-05-19T09:28:25.341Z,33.00
2019-05-19T09:30:55.125Z,35.60
2019-05-19T09:33:24.649Z,32.53
2019-05-19T09:35:54.271Z,43.92
2019-05-19T09:38:23.919Z,32.30
2019-05-19T09:40:53.431Z,34.40
2019-05-19T09:43:22.987Z,28.50
2019-05-19T09:45:52.501Z,28.40
2019-05-19T09:48:22.145Z,28.23
2019-05-19T09:50:51.661Z,29.05
2019-05-19T09:53:22.707Z,27.27
2019-05-19T09:55:52.521Z,27.70
2019-05-19T09:58:22.067Z,28.47
2019-05-19T10:00:53.970Z,30.02
2019-05-19T10:03:23.657Z,31.80
2019-05-19T10:05:54.291Z,26.82
2019-05-19T10:08:27.707Z,26.60
2019-05-19T10:11:09.222Z,27.48
2019-05-19T10:13:38.777Z,26.37
2019-05-19T10:16:08.346Z,23.70
2019-05-19T10:18:37.850Z,24.67
2019-05-19T10:21:07.469Z,23.07
2019-05-19T10:23:37.002Z,28.07
2019-05-19T10:26:06.573Z,25.90
2019-05-19T10:28:36.083Z,24.43
2019-05-19T10:31:05.629Z,27.13
2019-05-19T10:33:35.211Z,24.32
2019-05-19T10:36:04.604Z,22.40
2019-05-19T10:38:34.108Z,27.97
2019-05-19T10:41:03.573Z,18.70
2019-05-19T10:43:33.110Z,20.03
2019-05-19T10:46:02.830Z,21.00
2019-05-19T10:48:32.286Z,18.80
2019-05-19T10:51:01.815Z,23.77
2019-05-19T10:53:32.393Z,19.25
2019-05-19T10:56:01.834Z,17.80
2019-05-19T10:58:31.340Z,17.53
2019-05-19T11:01:00.844Z,21.40
2019-05-19T11:03:30.402Z,16.27
2019-05-19T11:05:59.909Z,18.05
2019-05-19T11:08:30.212Z,14.75
2019-05-19T11:11:00.693Z,17.90
2019-05-19T11:13:30.177Z,15.70
2019-05-19T11:15:59.754Z,15.17
2019-05-19T11:18:29.265Z,13.48
2019-05-19T11:20:59.806Z,11.03
2019-05-19T11:23:30.858Z,14.53
2019-05-19T11:26:00.357Z,12.43
2019-05-19T11:28:30.080Z,11.83
2019-05-19T11:30:59.570Z,11.20
2019-05-19T11:33:29.075Z,12.30
2019-05-19T11:35:58.629Z,12.85
2019-05-19T11:38:29.134Z,13.48
2019-05-19T11:40:58.655Z,14.73
2019-05-19T11:43:28.165Z,14.30
2019-05-19T11:46:00.618Z,13.37
2019-05-19T11:48:33.228Z,12.63
2019-05-19T11:51:02.820Z,13.18
2019-05-19T11:53:32.322Z,15.40
2019-05-19T11:56:07.178Z,17.27
2019-05-19T11:58:33.077Z,15.53
2019-05-19T12:01:02.520Z,16.57
2019-05-19T12:03:32.036Z,14.30
2019-05-19T12:06:01.529Z,17.52
2019-05-19T12:08:30.962Z,14.17
2019-05-19T12:11:00.461Z,16.73
2019-05-19T12:13:30.311Z,14.30
2019-05-19T12:15:59.883Z,14.73
2019-05-19T12:18:29.366Z,16.60
2019-05-19T12:20:58.910Z,15.13
2019-05-19T12:23:29.420Z,12.73
2019-05-19T12:25:59.060Z,13.48
2019-05-19T12:28:28.733Z,11.00
2019-05-19T12:30:58.258Z,11.43
2019-05-19T12:33:27.845Z,8.33
2019-05-19T12:35:57.375Z,9.95
2019-05-19T12:38:26.899Z,8.67
2019-05-19T12:40:57.409Z,11.78
2019-05-19T12:43:26.859Z,8.45
2019-05-19T12:45:56.382Z,8.03
2019-05-19T12:48:25.830Z,9.97
2019-05-19T12:50:55.409Z,5.97
2019-05-19T12:53:24.883Z,10.35
2019-05-19T12:55:54.456Z,10.38
2019-05-19T12:58:24.009Z,7.80
2019-05-19T13:00:53.498Z,8.13
2019-05-19T13:03:23.025Z,6.37
2019-05-19T13:05:54.076Z,8.20
2019-05-19T13:08:23.540Z,7.00
2019-05-19T13:10:53.110Z,5.83
2019-05-19T13:13:22.666Z,6.15
2019-05-19T13:15:52.238Z,6.87
2019-05-19T13:18:21.726Z,7.00
2019-05-19T13:20:51.305Z,9.60
2019-05-19T13:23:21.814Z,8.50
2019-05-19T13:25:55.028Z,7.17
2019-05-19T13:28:24.605Z,6.03
2019-05-19T13:30:54.168Z,7.70
2019-05-19T13:33:23.742Z,7.90
2019-05-19T13:35:53.248Z,6.35
2019-05-19T13:38:22.751Z,5.03
2019-05-19T13:40:52.464Z,9.70
2019-05-19T13:43:25.767Z,9.70
2019-05-19T13:45:53.242Z,8.05
2019-05-19T13:48:22.723Z,7.22
2019-05-19T13:50:52.275Z,7.75
2019-05-19T13:53:21.765Z,5.92
2019-05-19T13:55:51.161Z,8.38
2019-05-19T13:58:20.740Z,8.38
2019-05-19T14:00:50.198Z,8.45
2019-05-19T14:03:19.934Z,6.08
2019-05-19T14:05:49.465Z,6.37
2019-05-19T14:08:18.936Z,9.10
2019-05-19T14:11:09.375Z,9.48
2019-05-19T14:13:42.744Z,9.93
2019-05-19T14:16:12.402Z,9.98
2019-05-19T14:18:42.083Z,14.65
2019-05-19T14:21:11.607Z,27.13
2019-05-19T14:23:41.162Z,22.85
2019-05-19T14:26:10.682Z,25.62
2019-05-19T14:28:40.136Z,22.93
2019-05-19T14:31:09.629Z,26.47
2019-05-19T14:33:39.125Z,21.13
2019-05-19T14:36:08.669Z,25.67
2019-05-19T14:38:39.770Z,35.93
2019-05-19T14:41:09.297Z,31.68
2019-05-19T14:43:39.305Z,33.50
2019-05-19T14:46:09.121Z,33.90
2019-05-19T14:48:38.559Z,30.03
2019-05-19T14:51:08.139Z,23.00
2019-05-19T14:53:40.396Z,25.87
2019-05-19T14:56:09.883Z,16.57
2019-05-19T14:58:39.454Z,18.15
2019-05-19T15:01:08.924Z,21.53
2019-05-19T15:03:38.422Z,26.97
2019-05-19T15:06:08.087Z,19.10
2019-05-19T15:08:37.613Z,17.27
2019-05-19T15:11:08.924Z,18.42
2019-05-19T15:13:38.423Z,18.75
2019-05-19T15:16:07.922Z,17.90
2019-05-19T15:18:37.432Z,17.62
2019-05-19T15:21:06.968Z,19.73
2019-05-19T15:23:36.437Z,21.05
2019-05-19T15:26:05.887Z,23.60
2019-05-19T15:28:35.348Z,26.95
2019-05-19T15:31:07.893Z,25.37
2019-05-19T15:33:38.781Z,26.23
2019-05-19T15:36:09.755Z,23.73
2019-05-19T15:38:39.258Z,29.37
2019-05-19T15:41:08.746Z,30.95
2019-05-19T15:43:38.287Z,31.52
2019-05-19T15:46:07.791Z,31.25
2019-05-19T15:48:37.267Z,28.62
2019-05-19T15:51:06.787Z,33.08
2019-05-19T15:53:36.292Z,35.70
2019-05-19T15:56:05.797Z,39.65
2019-05-19T15:58:35.301Z,34.40
2019-05-19T16:01:04.879Z,37.80
2019-05-19T16:03:34.535Z,37.53
2019-05-19T16:06:04.089Z,37.55
2019-05-19T16:08:33.633Z,40.30
2019-05-19T16:11:03.151Z,37.10
2019-05-19T16:13:32.681Z,41.50
2019-05-19T16:16:02.137Z,47.83
2019-05-19T16:18:31.609Z,50.87
2019-05-19T16:21:01.097Z,51.80
2019-05-19T16:23:30.621Z,50.67
2019-05-19T16:26:00.083Z,50.25
2019-05-19T16:28:31.076Z,50.70
2019-05-19T16:31:00.670Z,54.88
2019-05-19T16:33:30.133Z,53.30
2019-05-19T16:35:59.576Z,55.52
2019-05-19T16:38:29.040Z,54.83
2019-05-19T16:40:58.555Z,65.55
2019-05-19T16:43:28.062Z,59.30
2019-05-19T16:45:57.593Z,58.83
2019-05-19T16:48:27.127Z,60.77
2019-05-19T16:50:56.698Z,66.90
2019-05-19T16:53:26.237Z,59.00
2019-05-19T16:55:55.935Z,61.88
2019-05-19T16:58:25.420Z,60.40
2019-05-19T17:00:55.002Z,60.20
2019-05-19T17:03:24.478Z,56.02
2019-05-19T17:05:55.139Z,61.77
2019-05-19T17:08:24.753Z,66.10
2019-05-19T17:10:54.767Z,60.83
2019-05-19T17:13:24.337Z,65.70
2019-05-19T17:15:53.986Z,62.48
2019-05-19T17:18:23.438Z,68.17
2019-05-19T17:20:52.934Z,71.82
2019-05-19T17:23:22.438Z,64.42
2019-05-19T17:25:52.014Z,68.47
2019-05-19T17:28:21.498Z,68.42
2019-05-19T17:30:52.185Z,64.07
2019-05-19T17:33:21.672Z,61.43
2019-05-19T17:35:51.504Z,65.50
2019-05-19T17:38:22.608Z,59.90
2019-05-19T17:40:53.404Z,61.77
2019-05-19T17:43:22.894Z,61.10
2019-05-19T17:45:52.398Z,61.02
2019-05-19T17:48:26.535Z,54.03
2019-05-19T17:50:54.667Z,50.15
2019-05-19T17:53:24.189Z,24.55
2019-05-19T17:55:54.515Z,24.12
2019-05-19T18:00:53.031Z,9.28
2019-05-19T18:03:24.280Z,8.78
2019-05-19T18:05:53.827Z,5.12
2019-05-19T18:08:23.300Z,8.88
2019-05-19T18:10:52.779Z,7.08
2019-05-19T18:13:22.462Z,7.03
2019-05-19T18:15:51.945Z,6.45
2019-05-19T18:18:21.465Z,6.95
2019-05-19T18:20:50.951Z,4.97
2019-05-19T18:23:20.398Z,5.25
2019-05-19T18:25:49.867Z,5.22
2019-05-19T18:28:20.783Z,6.45
2019-05-19T18:33:18.765Z,7.15
2019-05-19T18:35:48.252Z,7.00
2019-05-19T18:38:17.731Z,5.70
2019-05-19T18:40:47.217Z,5.60
2019-05-19T18:43:16.645Z,6.23
2019-05-19T18:45:46.210Z,5.90
2019-05-19T18:48:16.124Z,4.17
2019-05-19T18:50:45.707Z,5.83
2019-05-19T18:53:15.162Z,4.70
2019-05-19T18:55:44.678Z,4.78
2019-05-19T18:58:14.167Z,4.45
2019-05-19T19:00:43.904Z,4.03
2019-05-19T19:03:13.415Z,3.92
2019-05-19T19:05:42.887Z,4.30
2019-05-19T19:08:12.359Z,3.60
2019-05-19T19:10:41.855Z,3.70
2019-05-19T19:13:11.366Z,3.92
2019-05-19T19:15:40.816Z,3.55
2019-05-19T19:18:10.537Z,9.10
2019-05-19T19:20:40.208Z,4.00
2019-05-19T19:23:09.671Z,4.30
2019-05-19T19:25:39.167Z,4.95
2019-05-19T19:28:08.626Z,4.62
2019-05-19T19:30:38.251Z,5.85
2019-05-19T19:33:07.940Z,5.83
2019-05-19T19:35:39.751Z,7.03
2019-05-19T19:38:10.452Z,5.42
2019-05-19T19:40:39.897Z,4.62
2019-05-19T19:43:09.474Z,5.20
2019-05-19T19:45:39.004Z,8.15
2019-05-19T19:48:08.565Z,8.40
2019-05-19T19:50:41.295Z,6.45
2019-05-19T19:53:10.844Z,10.80
2019-05-19T19:55:40.322Z,7.47
2019-05-19T19:58:09.907Z,15.27
2019-05-19T20:00:41.383Z,9.45
2019-05-19T20:03:10.956Z,10.25
2019-05-19T20:05:41.011Z,10.63
2019-05-19T20:08:10.546Z,15.87
2019-05-19T20:10:40.121Z,15.10
2019-05-19T20:13:09.623Z,21.50
2019-05-19T20:15:40.744Z,27.35
2019-05-19T20:18:10.409Z,24.90
2019-05-19T20:20:39.968Z,29.67
2019-05-19T20:23:10.456Z,34.00
2019-05-19T20:25:39.962Z,36.53
2019-05-19T20:28:09.484Z,46.95
2019-05-19T20:30:39.012Z,39.00
2019-05-19T20:33:08.505Z,48.20
2019-05-19T20:35:37.996Z,48.40
2019-05-19T20:38:07.590Z,52.43
2019-05-19T20:40:37.021Z,52.40
2019-05-19T20:43:06.580Z,55.55
2019-05-19T20:45:35.983Z,55.70
2019-05-19T20:48:06.570Z,52.85
2019-05-19T20:50:36.101Z,57.73
2019-05-19T20:53:05.611Z,52.25
2019-05-19T20:55:35.217Z,53.30
2019-05-19T20:58:04.842Z,54.13
2019-05-19T21:00:49.114Z,56.77
2019-05-19T21:03:05.496Z,63.33
2019-05-19T21:05:35.100Z,54.83
2019-05-19T21:08:04.590Z,52.55
2019-05-19T21:10:34.605Z,55.08
2019-05-19T21:13:04.164Z,59.98
2019-05-19T21:15:33.602Z,57.95
2019-05-19T21:18:03.109Z,61.30
2019-05-19T21:20:32.666Z,62.60
2019-05-19T21:23:02.260Z,61.23
2019-05-19T21:25:31.705Z,53.40
2019-05-19T21:28:01.109Z,56.75
2019-05-19T21:30:30.626Z,55.25
2019-05-19T21:33:00.215Z,54.50
2019-05-19T21:35:29.747Z,61.28
2019-05-19T21:37:59.408Z,54.80
2019-05-19T21:40:28.966Z,49.10
2019-05-19T21:42:58.488Z,59.18
2019-05-19T21:45:27.938Z,56.80
2019-05-19T21:47:58.533Z,53.50
2019-05-19T21:50:27.956Z,61.45
2019-05-19T21:52:57.457Z,56.90
2019-05-19T21:55:26.981Z,55.08
2019-05-19T21:57:56.476Z,59.95
2019-05-19T22:00:27.987Z,57.08
2019-05-19T22:02:58.741Z,62.05
2019-05-19T22:05:28.343Z,58.95
2019-05-19T22:08:02.323Z,59.33
2019-05-19T22:10:31.839Z,55.55
2019-05-19T22:13:01.461Z,61.00
2019-05-19T22:15:30.970Z,57.58
2019-05-19T22:18:00.393Z,61.13
2019-05-19T22:20:29.903Z,62.27
2019-05-19T22:22:59.463Z,68.42
2019-05-19T22:25:30.175Z,52.80
2019-05-19T22:27:59.638Z,58.38
2019-05-19T22:30:29.130Z,53.78
2019-05-19T22:32:58.634Z,49.80
2019-05-19T22:35:28.145Z,63.60
2019-05-19T22:37:57.754Z,58.87
2019-05-19T22:40:28.397Z,58.33
2019-05-19T22:42:57.899Z,53.73
2019-05-19T22:45:27.376Z,53.48
2019-05-19T22:47:56.885Z,57.10
2019-05-19T22:50:26.372Z,54.58
2019-05-19T22:52:55.934Z,54.53
2019-05-19T22:55:25.490Z,58.95
2019-05-19T22:57:55.025Z,52.83
2019-05-19T23:00:25.578Z,48.23
2019-05-19T23:02:55.081Z,48.63
2019-05-19T23:05:24.670Z,47.40
2019-05-19T23:07:54.182Z,46.93
2019-05-19T23:10:24.290Z,46.48
2019-05-19T23:12:53.795Z,45.83
2019-05-19T23:15:24.910Z,48.10
2019-05-19T23:17:54.593Z,49.10
2019-05-19T23:20:24.209Z,45.33
2019-05-19T23:22:54.607Z,45.00
2019-05-19T23:25:24.087Z,44.10
2019-05-19T23:27:53.666Z,46.10
2019-05-19T23:30:23.259Z,44.03
2019-05-19T23:32:52.754Z,41.85
2019-05-19T23:35:24.258Z,46.85
2019-05-19T23:37:53.760Z,43.35
2019-05-19T23:40:23.371Z,40.45
2019-05-19T23:42:53.944Z,43.92
2019-05-19T23:45:23.404Z,44.58
2019-05-19T23:47:52.901Z,45.00
2019-05-19T23:50:22.385Z,52.38
2019-05-19T23:52:51.897Z,48.43
2019-05-19T23:55:25.178Z,37.23
2019-05-19T23:57:54.685Z,43.98
